createdAt,value
2022-07-29T00:01:38.725Z,2.90
2022-07-29T00:04:07.010Z,2.90
2022-07-29T00:06:34.996Z,2.70
2022-07-29T00:09:02.921Z,2.70
2022-07-29T00:11:31.230Z,2.80
2022-07-29T00:13:59.100Z,2.83
2022-07-29T00:16:27.115Z,2.80
2022-07-29T00:18:55.383Z,3.10
2022-07-29T00:21:23.217Z,3.10
2022-07-29T00:23:51.133Z,2.62
2022-07-29T00:26:19.376Z,3.08
2022-07-29T00:28:47.212Z,2.58
2022-07-29T00:31:16.272Z,3.10
2022-07-29T00:33:44.592Z,2.77
2022-07-29T00:36:12.522Z,2.78
2022-07-29T00:38:42.642Z,2.70
2022-07-29T00:41:11.084Z,2.92
2022-07-29T00:43:39.047Z,2.72
2022-07-29T00:46:06.955Z,2.80
2022-07-29T00:48:35.176Z,2.83
2022-07-29T00:51:05.460Z,3.03
2022-07-29T00:53:33.639Z,3.08
2022-07-29T00:56:01.901Z,3.08
2022-07-29T00:58:29.819Z,3.37
2022-07-29T01:00:59.256Z,3.50
2022-07-29T01:03:27.427Z,3.47
2022-07-29T01:05:55.926Z,3.30
2022-07-29T01:08:24.919Z,4.30
2022-07-29T01:10:54.246Z,3.50
2022-07-29T01:13:23.487Z,3.75
2022-07-29T01:15:58.022Z,3.37
2022-07-29T01:18:35.052Z,3.42
2022-07-29T01:21:45.981Z,3.90
2022-07-29T01:24:51.527Z,3.50
2022-07-29T01:27:38.174Z,3.35
2022-07-29T01:30:08.506Z,3.50
2022-07-29T01:32:40.538Z,3.70
2022-07-29T01:35:11.257Z,3.37
2022-07-29T01:37:58.955Z,3.40
2022-07-29T01:40:41.889Z,3.40
2022-07-29T01:43:19.905Z,3.40
2022-07-29T01:46:04.255Z,3.37
2022-07-29T01:49:02.196Z,3.50
2022-07-29T01:51:36.748Z,3.30
2022-07-29T01:54:27.701Z,3.62
2022-07-29T01:56:59.822Z,3.47
2022-07-29T01:59:30.032Z,3.30
2022-07-29T02:02:00.657Z,3.25
2022-07-29T02:04:30.608Z,3.80
2022-07-29T02:07:04.685Z,3.00
2022-07-29T02:09:35.859Z,3.67
2022-07-29T02:12:05.261Z,3.40
2022-07-29T02:14:37.470Z,3.35
2022-07-29T02:17:05.876Z,3.60
2022-07-29T02:19:35.217Z,3.47
2022-07-29T02:22:03.857Z,3.92
2022-07-29T02:24:32.315Z,3.70
2022-07-29T02:27:02.037Z,3.78
2022-07-29T02:29:32.999Z,3.90
2022-07-29T02:32:04.040Z,4.18
2022-07-29T02:34:34.351Z,3.40
2022-07-29T02:37:04.766Z,3.45
2022-07-29T02:39:35.473Z,3.50
2022-07-29T02:42:08.239Z,3.33
2022-07-29T02:44:37.063Z,3.80
2022-07-29T02:47:23.170Z,3.50
2022-07-29T02:50:09.481Z,3.65
2022-07-29T02:53:10.087Z,3.33
2022-07-29T02:55:47.477Z,4.07
2022-07-29T02:58:29.431Z,3.53
2022-07-29T03:01:04.530Z,4.15
2022-07-29T03:03:38.453Z,4.10
2022-07-29T03:06:08.544Z,3.33
2022-07-29T03:08:57.703Z,3.93
2022-07-29T03:11:41.442Z,3.70
2022-07-29T03:14:15.683Z,4.43
2022-07-29T03:16:44.092Z,4.50
2022-07-29T03:19:12.344Z,3.85
2022-07-29T03:21:40.682Z,4.40
2022-07-29T03:24:10.867Z,4.30
2022-07-29T03:26:40.985Z,4.60
2022-07-29T03:29:09.243Z,4.22
2022-07-29T03:31:41.867Z,4.03
2022-07-29T03:34:11.561Z,3.87
2022-07-29T03:36:39.481Z,4.30
2022-07-29T03:39:11.085Z,4.40
2022-07-29T03:41:40.170Z,4.10
2022-07-29T03:44:09.684Z,4.60
2022-07-29T03:46:40.075Z,4.67
2022-07-29T03:49:09.633Z,4.87
2022-07-29T03:51:37.902Z,4.62
2022-07-29T03:54:10.113Z,4.55
2022-07-29T03:56:49.038Z,4.47
2022-07-29T03:59:20.522Z,4.10
2022-07-29T04:01:50.113Z,4.25
2022-07-29T04:04:18.859Z,4.72
2022-07-29T04:06:48.283Z,4.32
2022-07-29T04:09:16.367Z,4.95
2022-07-29T04:12:02.072Z,4.80
2022-07-29T04:14:33.784Z,4.70
2022-07-29T04:17:03.235Z,4.93
2022-07-29T04:19:31.805Z,4.47
2022-07-29T04:22:01.030Z,4.57
2022-07-29T04:24:29.534Z,4.53
2022-07-29T04:26:57.410Z,4.90
2022-07-29T04:29:25.284Z,4.80
2022-07-29T04:31:53.719Z,4.40
2022-07-29T04:34:21.656Z,4.22
2022-07-29T04:36:49.560Z,4.27
2022-07-29T04:39:22.758Z,4.28
2022-07-29T04:41:52.394Z,4.43
2022-07-29T04:44:26.530Z,4.55
2022-07-29T04:46:58.219Z,4.53
2022-07-29T04:49:26.733Z,4.47
2022-07-29T04:51:55.101Z,3.67
2022-07-29T04:54:23.327Z,4.28
2022-07-29T04:56:51.773Z,4.37
2022-07-29T04:59:19.825Z,4.65
2022-07-29T05:01:47.818Z,4.03
2022-07-29T05:04:16.375Z,4.87
2022-07-29T05:06:44.609Z,4.30
2022-07-29T05:09:12.473Z,3.80
2022-07-29T05:11:40.799Z,4.37
2022-07-29T05:14:08.776Z,4.30
2022-07-29T09:02:40.288Z,2.90
2022-07-29T09:05:10.766Z,2.87
2022-07-29T09:07:40.847Z,2.83
2022-07-29T09:10:10.009Z,2.80
2022-07-29T09:12:39.003Z,2.87
2022-07-29T09:15:09.388Z,2.60
2022-07-29T09:17:47.882Z,2.50
2022-07-29T09:20:21.427Z,3.10
2022-07-29T09:22:51.936Z,2.70
2022-07-29T09:25:37.078Z,2.70
2022-07-29T09:28:18.832Z,2.83
2022-07-29T09:30:55.312Z,2.40
2022-07-29T09:33:34.452Z,2.92
2022-07-29T09:36:07.597Z,2.60
2022-07-29T09:38:38.622Z,2.80
2022-07-29T09:41:09.135Z,2.70
2022-07-29T09:43:38.805Z,2.80
2022-07-29T09:46:16.994Z,2.80
2022-07-29T09:48:45.452Z,2.58
2022-07-29T09:51:25.554Z,3.00
2022-07-29T09:53:57.341Z,2.80
2022-07-29T09:56:42.786Z,2.90
2022-07-29T09:59:14.348Z,2.97
2022-07-29T10:01:43.033Z,3.10
2022-07-29T10:04:12.966Z,2.70
2022-07-29T10:07:09.781Z,2.90
2022-07-29T10:09:40.663Z,2.70
2022-07-29T10:12:17.448Z,3.12
2022-07-29T10:14:46.677Z,2.65
2022-07-29T10:17:16.714Z,2.30
2022-07-29T10:19:45.715Z,2.50
2022-07-29T10:22:15.043Z,2.90
2022-07-29T10:24:43.003Z,2.47
2022-07-29T10:27:10.983Z,2.75
2022-07-29T10:29:39.339Z,2.70
2022-07-29T10:32:31.884Z,2.77
2022-07-29T10:35:09.929Z,2.87
2022-07-29T10:38:24.793Z,3.05
2022-07-29T10:41:21.281Z,2.90
2022-07-29T10:43:53.265Z,3.30
2022-07-29T10:46:23.740Z,2.90
2022-07-29T10:49:24.729Z,3.35
2022-07-29T10:51:58.360Z,3.40
2022-07-29T10:54:52.486Z,3.53
2022-07-29T10:57:54.210Z,3.30
2022-07-29T11:00:31.681Z,2.93
2022-07-29T11:03:01.301Z,2.87
2022-07-29T11:05:53.488Z,3.00
2022-07-29T11:08:29.081Z,2.95
2022-07-29T11:11:22.191Z,3.50
2022-07-29T11:13:53.275Z,3.10
2022-07-29T11:16:25.302Z,3.30
2022-07-29T11:19:21.612Z,3.20
2022-07-29T11:21:58.910Z,2.60
2022-07-29T11:24:32.482Z,2.45
2022-07-29T11:27:13.520Z,2.87
2022-07-29T11:29:54.430Z,2.35
2022-07-29T11:35:37.047Z,2.60
2022-07-29T11:38:28.893Z,2.60
2022-07-29T11:41:25.565Z,2.80
2022-07-29T11:43:56.998Z,3.03
2022-07-29T11:46:49.970Z,2.50
2022-07-29T11:49:31.933Z,2.83
2022-07-29T11:52:22.855Z,3.10
2022-07-29T11:55:00.547Z,2.40
2022-07-29T11:57:36.171Z,2.70
2022-07-29T12:00:12.614Z,3.12
2022-07-29T12:02:48.136Z,2.80
2022-07-29T12:05:35.975Z,2.90
2022-07-29T12:07:01.471Z,2.60
2022-07-29T12:08:20.291Z,2.73
2022-07-29T12:10:52.943Z,2.87
2022-07-29T12:13:22.187Z,3.10
2022-07-29T12:16:00.022Z,2.80
2022-07-29T12:18:29.425Z,2.80
2022-07-29T12:21:06.821Z,2.77
2022-07-29T12:23:37.565Z,2.80
2022-07-29T12:26:11.008Z,3.10
2022-07-29T12:28:53.504Z,3.00
2022-07-29T12:31:43.847Z,2.87
2022-07-29T12:34:16.877Z,2.50
2022-07-29T12:36:45.661Z,2.97
2022-07-29T12:39:14.912Z,3.70
2022-07-29T12:41:45.372Z,2.85
2022-07-29T12:44:14.449Z,2.87
2022-07-29T12:46:42.338Z,3.50
2022-07-29T12:49:10.499Z,2.80
2022-07-29T12:51:41.619Z,3.00
2022-07-29T12:54:16.333Z,3.25
2022-07-29T12:56:46.108Z,2.97
2022-07-29T12:59:15.705Z,3.27
2022-07-29T13:01:45.684Z,3.42
2022-07-29T13:04:26.567Z,3.40
2022-07-29T13:07:07.498Z,3.40
2022-07-29T13:09:39.379Z,3.87
2022-07-29T13:12:11.198Z,3.40
2022-07-29T13:14:46.024Z,3.28
2022-07-29T13:17:24.265Z,3.37
2022-07-29T13:20:06.116Z,3.15
2022-07-29T13:22:37.451Z,3.65
2022-07-29T13:25:08.974Z,3.17
2022-07-29T13:27:39.657Z,3.45
2022-07-29T13:30:10.453Z,3.05
2022-07-29T13:32:38.787Z,3.47
2022-07-29T13:35:09.098Z,3.50
2022-07-29T13:37:39.619Z,3.27
2022-07-29T13:40:11.938Z,3.30
2022-07-29T13:42:40.351Z,3.70
2022-07-29T13:45:09.532Z,3.47
2022-07-29T13:47:37.938Z,3.78
2022-07-29T13:50:08.240Z,3.47
2022-07-29T13:52:36.475Z,3.35
2022-07-29T13:55:05.327Z,3.70
2022-07-29T13:57:33.653Z,3.60
2022-07-29T14:00:01.566Z,3.53
2022-07-29T14:02:36.315Z,3.50
2022-07-29T14:05:08.398Z,3.55
2022-07-29T14:07:38.055Z,3.97
2022-07-29T14:10:07.096Z,3.55
2022-07-29T14:12:35.196Z,3.37
2022-07-29T14:15:03.601Z,3.40
2022-07-29T14:17:31.955Z,3.10
2022-07-29T14:20:00.552Z,3.70
2022-07-29T14:22:28.539Z,3.42
2022-07-29T14:24:56.754Z,3.70
2022-07-29T14:27:36.904Z,3.70
2022-07-29T14:30:07.581Z,3.78
2022-07-29T14:32:35.478Z,3.60
2022-07-29T14:35:03.735Z,3.60
2022-07-29T14:37:39.786Z,3.60
2022-07-29T14:40:10.421Z,3.40
2022-07-29T14:42:39.136Z,3.53
2022-07-29T14:45:09.087Z,3.70
2022-07-29T14:47:38.318Z,3.60
2022-07-29T14:50:07.423Z,3.47
2022-07-29T14:52:36.467Z,3.20
2022-07-29T14:55:05.335Z,3.60
2022-07-29T14:57:44.649Z,3.90
2022-07-29T15:00:12.907Z,3.37
2022-07-29T15:03:00.925Z,3.50
2022-07-29T15:05:29.374Z,3.33
2022-07-29T15:07:57.391Z,3.60
2022-07-29T15:10:27.227Z,4.35
2022-07-29T15:12:56.363Z,3.25
2022-07-29T15:15:24.539Z,3.70
2022-07-29T15:17:52.496Z,3.60
2022-07-29T15:20:20.764Z,3.50
2022-07-29T15:22:48.744Z,3.80
2022-07-29T15:25:16.634Z,3.78
2022-07-29T15:27:48.965Z,4.00
2022-07-29T15:30:32.478Z,3.37
2022-07-29T15:33:05.350Z,3.58
2022-07-29T15:35:40.579Z,3.85
2022-07-29T15:38:09.306Z,3.62
2022-07-29T15:40:39.594Z,3.80
2022-07-29T15:43:07.890Z,3.50
2022-07-29T15:45:41.313Z,3.50
2022-07-29T15:48:10.380Z,3.90
2022-07-29T15:50:43.202Z,3.90
2022-07-29T15:53:15.389Z,3.92
2022-07-29T15:55:44.508Z,3.83
2022-07-29T15:58:12.676Z,3.75
2022-07-29T16:00:40.666Z,4.00
2022-07-29T16:03:08.963Z,4.10
2022-07-29T16:05:37.302Z,3.78
2022-07-29T16:08:05.813Z,4.13
2022-07-29T16:10:34.360Z,3.70
2022-07-29T16:13:02.378Z,3.90
2022-07-29T16:15:30.346Z,3.78
2022-07-29T16:17:58.639Z,4.18
2022-07-29T16:20:26.716Z,4.40
2022-07-29T16:22:55.290Z,4.20
2022-07-29T16:25:38.406Z,4.07
2022-07-29T16:28:11.542Z,3.97
2022-07-29T16:30:39.760Z,4.12
2022-07-29T16:33:08.510Z,4.00
2022-07-29T16:35:40.152Z,3.78
2022-07-29T16:38:08.693Z,4.45
2022-07-29T16:40:37.014Z,4.60
2022-07-29T16:43:04.928Z,4.57
2022-07-29T16:45:45.113Z,4.50
2022-07-29T16:48:15.326Z,4.20
2022-07-29T16:50:46.581Z,4.72
2022-07-29T16:53:14.463Z,4.32
2022-07-29T16:55:42.764Z,4.28
2022-07-29T16:58:11.458Z,4.50
2022-07-29T17:00:42.138Z,4.30
2022-07-29T17:03:10.382Z,4.60
2022-07-29T17:05:52.315Z,4.40
2022-07-29T17:08:23.008Z,4.30
2022-07-29T17:10:51.339Z,4.40
2022-07-29T17:13:19.629Z,4.72
2022-07-29T17:15:48.059Z,5.22
2022-07-29T17:18:16.031Z,4.90
2022-07-29T17:20:44.078Z,5.12
2022-07-29T17:23:12.360Z,4.80
2022-07-29T17:25:43.707Z,5.40
2022-07-29T17:28:11.624Z,4.93
2022-07-29T17:30:39.871Z,5.10
2022-07-29T17:33:09.012Z,4.95
2022-07-29T17:35:55.354Z,4.77
2022-07-29T17:38:23.539Z,5.40
2022-07-29T17:40:51.606Z,5.20
2022-07-29T17:43:19.532Z,5.40
2022-07-29T17:45:50.083Z,5.22
2022-07-29T17:48:19.617Z,5.10
2022-07-29T17:50:49.051Z,5.55
2022-07-29T17:53:17.411Z,5.80
2022-07-29T17:55:51.228Z,5.75
2022-07-29T17:58:19.628Z,5.65
2022-07-29T18:00:48.321Z,5.30
2022-07-29T18:03:16.735Z,5.05
2022-07-29T18:05:45.150Z,5.55
2022-07-29T18:08:13.228Z,5.40
2022-07-29T18:10:41.750Z,5.22
2022-07-29T18:13:11.664Z,5.50
2022-07-29T18:15:40.595Z,5.12
2022-07-29T18:18:09.227Z,5.60
2022-07-29T18:20:37.781Z,5.45
2022-07-29T18:23:06.109Z,5.65
2022-07-29T18:25:34.556Z,5.63
2022-07-29T18:28:02.468Z,6.25
2022-07-29T18:30:31.226Z,5.70
2022-07-29T18:33:20.228Z,5.65
2022-07-29T18:35:49.596Z,6.40
2022-07-29T18:38:18.436Z,5.90
2022-07-29T18:40:46.508Z,5.55
2022-07-29T18:43:14.685Z,5.55
2022-07-29T18:45:43.031Z,5.65
2022-07-29T18:48:12.741Z,6.03
2022-07-29T18:50:41.914Z,6.33
2022-07-29T18:53:10.356Z,5.80
2022-07-29T18:55:38.370Z,5.65
2022-07-29T18:58:06.553Z,5.62
2022-07-29T19:00:35.464Z,6.47
2022-07-29T19:03:03.696Z,7.17
2022-07-29T19:05:32.397Z,6.78
2022-07-29T19:08:00.835Z,6.10
2022-07-29T19:10:29.037Z,5.60
2022-07-29T19:12:58.131Z,6.20
2022-07-29T19:15:26.815Z,5.67
2022-07-29T19:17:59.015Z,5.47
2022-07-29T19:20:29.569Z,5.62
2022-07-29T19:22:57.614Z,5.50
2022-07-29T19:25:25.916Z,5.72
2022-07-29T19:27:54.323Z,5.57
2022-07-29T19:30:22.454Z,6.25
2022-07-29T19:32:50.678Z,6.00
2022-07-29T19:35:28.464Z,5.80
2022-07-29T19:37:58.432Z,6.07
2022-07-29T19:40:27.921Z,5.57
2022-07-29T19:42:56.605Z,5.35
2022-07-29T19:45:26.149Z,5.80
2022-07-29T19:48:00.752Z,5.85
2022-07-29T19:50:30.273Z,6.07
2022-07-29T19:52:59.512Z,6.33
2022-07-29T19:55:28.227Z,6.45
2022-07-29T19:57:56.630Z,5.75
2022-07-29T20:00:26.047Z,6.00
2022-07-29T20:02:54.464Z,5.90
2022-07-29T20:05:27.837Z,5.80
2022-07-29T20:07:57.162Z,5.90
2022-07-29T20:10:25.352Z,6.57
2022-07-29T20:12:55.025Z,6.37
2022-07-29T20:15:23.876Z,6.50
2022-07-29T20:17:56.935Z,6.20
2022-07-29T20:20:25.879Z,5.90
2022-07-29T20:22:54.340Z,6.50
2022-07-29T20:25:23.380Z,6.07
2022-07-29T20:27:52.647Z,6.12
2022-07-29T20:30:22.312Z,5.77
2022-07-29T20:32:50.724Z,6.18
2022-07-29T20:35:20.230Z,6.00
2022-07-29T20:37:52.034Z,6.37
2022-07-29T20:40:25.934Z,6.20
2022-07-29T20:42:54.513Z,5.80
2022-07-29T20:45:23.765Z,6.40
2022-07-29T20:47:52.871Z,6.07
2022-07-29T20:50:24.261Z,5.95
2022-07-29T20:52:53.437Z,6.72
2022-07-29T20:55:21.847Z,6.20
2022-07-29T20:57:55.433Z,6.80
2022-07-29T21:00:23.701Z,6.80
2022-07-29T21:02:51.847Z,6.30
2022-07-29T21:05:19.889Z,6.55
2022-07-29T21:07:48.088Z,6.97
2022-07-29T21:10:18.340Z,6.82
2022-07-29T21:12:46.867Z,6.57
2022-07-29T21:15:15.349Z,6.22
2022-07-29T21:17:49.143Z,6.95
2022-07-29T21:20:19.078Z,6.60
2022-07-29T21:22:47.064Z,6.53
2022-07-29T21:25:15.169Z,6.70
2022-07-29T21:28:02.169Z,6.00
2022-07-29T21:30:30.043Z,6.10
2022-07-29T21:32:58.846Z,6.47
2022-07-29T21:36:01.690Z,6.25
2022-07-29T21:38:16.536Z,6.30
2022-07-29T21:40:48.739Z,6.85
2022-07-29T21:43:17.786Z,6.35
2022-07-29T21:45:52.282Z,6.23
2022-07-29T21:48:21.651Z,6.60
2022-07-29T21:50:51.059Z,6.57
2022-07-29T21:53:20.826Z,7.12
2022-07-29T21:55:51.581Z,6.90
2022-07-29T21:58:22.221Z,7.33
2022-07-29T22:00:50.333Z,6.68
2022-07-29T22:03:18.555Z,7.18
2022-07-29T22:05:46.613Z,7.05
2022-07-29T22:08:14.757Z,7.22
2022-07-29T22:10:43.198Z,6.97
2022-07-29T22:13:11.447Z,6.95
2022-07-29T22:15:41.188Z,7.03
2022-07-29T22:18:12.476Z,6.37
2022-07-29T22:20:47.391Z,6.68
2022-07-29T22:23:15.746Z,6.80
2022-07-29T22:25:43.627Z,7.00
2022-07-29T22:28:11.566Z,6.82
2022-07-29T22:30:39.861Z,7.43
2022-07-29T22:33:07.770Z,6.60
2022-07-29T22:35:35.817Z,6.20
2022-07-29T22:38:04.053Z,6.07
2022-07-29T22:40:32.782Z,6.80
2022-07-29T22:43:02.217Z,6.15
2022-07-29T22:45:30.426Z,5.72
2022-07-29T22:47:59.443Z,6.47
2022-07-29T22:50:27.539Z,5.78
2022-07-29T22:52:55.775Z,6.10
2022-07-29T22:55:23.659Z,6.12
2022-07-29T22:57:51.683Z,5.82
2022-07-29T23:00:19.943Z,6.03
2022-07-29T23:02:47.930Z,5.82
2022-07-29T23:05:16.097Z,6.35
2022-07-29T23:07:44.582Z,6.47
2022-07-29T23:10:12.477Z,6.40
2022-07-29T23:12:40.360Z,6.10
2022-07-29T23:15:08.720Z,6.10
2022-07-29T23:17:37.096Z,6.45
2022-07-29T23:20:07.723Z,5.95
2022-07-29T23:22:36.512Z,6.00
2022-07-29T23:25:06.367Z,6.00
2022-07-29T23:27:34.409Z,6.00
2022-07-29T23:30:03.802Z,6.75
2022-07-29T23:32:31.846Z,5.90
2022-07-29T23:34:59.831Z,6.10
2022-07-29T23:37:28.110Z,6.50
2022-07-29T23:39:56.454Z,5.87
2022-07-29T23:42:24.322Z,6.00
2022-07-29T23:44:52.712Z,6.10
2022-07-29T23:47:20.643Z,6.20
2022-07-29T23:49:50.101Z,6.30
2022-07-29T23:52:18.600Z,6.20
2022-07-29T23:54:46.679Z,6.80
2022-07-29T23:57:14.665Z,5.97
2022-07-29T23:59:42.930Z,6.15
